sensor_id;sensor_type;location;lat;lon;timestamp;P1;durP1;ratioP1;P2;durP2;ratioP2
9224;SDS011;4647;48.072;11.616;2023-10-08T00:00:49;6.43;;;4.73;;
9224;SDS011;4647;48.072;11.616;2023-10-08T00:03:20;8.30;;;4.90;;
9224;SDS011;4647;48.072;11.616;2023-10-08T00:05:50;5.83;;;5.00;;
9224;SDS011;4647;48.072;11.616;2023-10-08T00:08:18;6.13;;;4.83;;
9224;SDS011;4647;48.072;11.616;2023-10-08T00:10:47;6.70;;;5.20;;
9224;SDS011;4647;48.072;11.616;2023-10-08T00:13:16;5.60;;;4.97;;
9224;SDS011;4647;48.072;11.616;2023-10-08T00:15:44;6.93;;;5.07;;
9224;SDS011;4647;48.072;11.616;2023-10-08T00:18:21;6.17;;;5.10;;
9224;SDS011;4647;48.072;11.616;2023-10-08T00:20:50;7.43;;;5.90;;
9224;SDS011;4647;48.072;11.616;2023-10-08T00:23:30;9.73;;;5.27;;
9224;SDS011;4647;48.072;11.616;2023-10-08T00:26:00;6.77;;;5.17;;
9224;SDS011;4647;48.072;11.616;2023-10-08T00:28:31;7.07;;;5.20;;
9224;SDS011;4647;48.072;11.616;2023-10-08T00:31:01;6.90;;;5.37;;
9224;SDS011;4647;48.072;11.616;2023-10-08T00:33:39;6.87;;;5.00;;
9224;SDS011;4647;48.072;11.616;2023-10-08T00:36:09;6.77;;;5.13;;
9224;SDS011;4647;48.072;11.616;2023-10-08T00:38:45;6.17;;;4.90;;
9224;SDS011;4647;48.072;11.616;2023-10-08T00:41:16;6.83;;;5.63;;
9224;SDS011;4647;48.072;11.616;2023-10-08T00:43:47;6.63;;;4.73;;
9224;SDS011;4647;48.072;11.616;2023-10-08T00:46:16;8.23;;;4.53;;
9224;SDS011;4647;48.072;11.616;2023-10-08T00:48:52;9.20;;;5.10;;
9224;SDS011;4647;48.072;11.616;2023-10-08T00:51:23;11.80;;;4.90;;
9224;SDS011;4647;48.072;11.616;2023-10-08T00:54:05;8.97;;;5.20;;
9224;SDS011;4647;48.072;11.616;2023-10-08T00:56:36;8.97;;;5.30;;
9224;SDS011;4647;48.072;11.616;2023-10-08T00:59:18;8.13;;;4.70;;
9224;SDS011;4647;48.072;11.616;2023-10-08T01:01:49;6.97;;;4.80;;
9224;SDS011;4647;48.072;11.616;2023-10-08T01:04:26;7.53;;;5.00;;
9224;SDS011;4647;48.072;11.616;2023-10-08T01:06:59;8.30;;;5.13;;
9224;SDS011;4647;48.072;11.616;2023-10-08T01:09:37;9.97;;;5.03;;
9224;SDS011;4647;48.072;11.616;2023-10-08T01:12:08;7.17;;;5.13;;
9224;SDS011;4647;48.072;11.616;2023-10-08T01:14:40;7.07;;;4.73;;
9224;SDS011;4647;48.072;11.616;2023-10-08T01:17:12;6.53;;;4.47;;
9224;SDS011;4647;48.072;11.616;2023-10-08T01:19:46;9.13;;;5.07;;
9224;SDS011;4647;48.072;11.616;2023-10-08T01:22:21;7.23;;;5.40;;
9224;SDS011;4647;48.072;11.616;2023-10-08T01:24:52;7.03;;;4.93;;
9224;SDS011;4647;48.072;11.616;2023-10-08T01:27:21;6.10;;;4.47;;
9224;SDS011;4647;48.072;11.616;2023-10-08T01:29:53;8.07;;;4.50;;
9224;SDS011;4647;48.072;11.616;2023-10-08T01:32:33;7.83;;;4.67;;
9224;SDS011;4647;48.072;11.616;2023-10-08T01:35:02;7.93;;;4.90;;
9224;SDS011;4647;48.072;11.616;2023-10-08T01:37:49;7.63;;;4.83;;
9224;SDS011;4647;48.072;11.616;2023-10-08T01:40:21;9.37;;;4.60;;
9224;SDS011;4647;48.072;11.616;2023-10-08T01:42:50;8.53;;;4.70;;
9224;SDS011;4647;48.072;11.616;2023-10-08T01:45:19;11.77;;;4.77;;
9224;SDS011;4647;48.072;11.616;2023-10-08T01:47:50;6.83;;;5.13;;
9224;SDS011;4647;48.072;11.616;2023-10-08T01:50:20;8.20;;;4.70;;
9224;SDS011;4647;48.072;11.616;2023-10-08T01:52:52;7.00;;;4.90;;
9224;SDS011;4647;48.072;11.616;2023-10-08T01:55:21;7.67;;;4.90;;
9224;SDS011;4647;48.072;11.616;2023-10-08T01:57:50;9.90;;;5.10;;
9224;SDS011;4647;48.072;11.616;2023-10-08T02:00:19;10.50;;;5.07;;
9224;SDS011;4647;48.072;11.616;2023-10-08T02:02:49;9.33;;;4.87;;
9224;SDS011;4647;48.072;11.616;2023-10-08T02:05:19;8.40;;;4.97;;
9224;SDS011;4647;48.072;11.616;2023-10-08T02:07:48;11.13;;;4.63;;
9224;SDS011;4647;48.072;11.616;2023-10-08T02:10:19;8.20;;;5.23;;
9224;SDS011;4647;48.072;11.616;2023-10-08T02:12:50;9.03;;;4.70;;
9224;SDS011;4647;48.072;11.616;2023-10-08T02:15:18;8.30;;;4.93;;
9224;SDS011;4647;48.072;11.616;2023-10-08T02:17:47;8.70;;;4.90;;
9224;SDS011;4647;48.072;11.616;2023-10-08T02:20:15;8.00;;;4.77;;
9224;SDS011;4647;48.072;11.616;2023-10-08T02:22:44;12.40;;;4.80;;
9224;SDS011;4647;48.072;11.616;2023-10-08T02:25:14;9.53;;;4.70;;
9224;SDS011;4647;48.072;11.616;2023-10-08T02:27:46;8.63;;;4.80;;
9224;SDS011;4647;48.072;11.616;2023-10-08T02:30:14;9.13;;;5.53;;
9224;SDS011;4647;48.072;11.616;2023-10-08T02:32:43;7.07;;;4.90;;
9224;SDS011;4647;48.072;11.616;2023-10-08T02:35:11;7.77;;;4.83;;
9224;SDS011;4647;48.072;11.616;2023-10-08T02:37:40;9.50;;;4.63;;
9224;SDS011;4647;48.072;11.616;2023-10-08T02:40:11;7.70;;;5.17;;
9224;SDS011;4647;48.072;11.616;2023-10-08T02:42:47;9.47;;;5.07;;
9224;SDS011;4647;48.072;11.616;2023-10-08T02:45:16;9.07;;;5.30;;
9224;SDS011;4647;48.072;11.616;2023-10-08T02:47:47;6.57;;;4.80;;
9224;SDS011;4647;48.072;11.616;2023-10-08T02:50:17;6.23;;;4.73;;
9224;SDS011;4647;48.072;11.616;2023-10-08T02:52:47;11.73;;;5.30;;
9224;SDS011;4647;48.072;11.616;2023-10-08T02:55:16;9.60;;;4.90;;
9224;SDS011;4647;48.072;11.616;2023-10-08T02:57:56;8.03;;;4.90;;
9224;SDS011;4647;48.072;11.616;2023-10-08T03:00:24;8.97;;;5.30;;
9224;SDS011;4647;48.072;11.616;2023-10-08T03:02:55;8.10;;;4.67;;
9224;SDS011;4647;48.072;11.616;2023-10-08T03:05:26;8.13;;;4.47;;
9224;SDS011;4647;48.072;11.616;2023-10-08T03:08:01;9.43;;;4.70;;
9224;SDS011;4647;48.072;11.616;2023-10-08T03:10:35;8.33;;;4.70;;
9224;SDS011;4647;48.072;11.616;2023-10-08T03:13:09;5.47;;;4.83;;
9224;SDS011;4647;48.072;11.616;2023-10-08T03:15:38;9.07;;;4.77;;
9224;SDS011;4647;48.072;11.616;2023-10-08T03:18:23;7.13;;;4.53;;
9224;SDS011;4647;48.072;11.616;2023-10-08T03:21:00;6.87;;;4.80;;
9224;SDS011;4647;48.072;11.616;2023-10-08T03:23:31;7.27;;;5.23;;
9224;SDS011;4647;48.072;11.616;2023-10-08T03:26:02;6.73;;;4.70;;
9224;SDS011;4647;48.072;11.616;2023-10-08T03:28:38;7.07;;;4.90;;
9224;SDS011;4647;48.072;11.616;2023-10-08T03:31:07;6.37;;;4.50;;
9224;SDS011;4647;48.072;11.616;2023-10-08T03:33:42;9.93;;;5.43;;
9224;SDS011;4647;48.072;11.616;2023-10-08T03:36:14;8.73;;;5.07;;
9224;SDS011;4647;48.072;11.616;2023-10-08T03:38:46;6.90;;;4.80;;
9224;SDS011;4647;48.072;11.616;2023-10-08T03:41:18;9.43;;;4.27;;
9224;SDS011;4647;48.072;11.616;2023-10-08T03:43:55;9.33;;;5.00;;
9224;SDS011;4647;48.072;11.616;2023-10-08T03:46:26;8.37;;;5.13;;
9224;SDS011;4647;48.072;11.616;2023-10-08T03:48:56;8.50;;;5.20;;
9224;SDS011;4647;48.072;11.616;2023-10-08T03:51:30;11.63;;;4.77;;
9224;SDS011;4647;48.072;11.616;2023-10-08T03:54:04;13.00;;;4.87;;
9224;SDS011;4647;48.072;11.616;2023-10-08T03:56:41;9.60;;;4.87;;
9224;SDS011;4647;48.072;11.616;2023-10-08T03:59:17;8.30;;;4.77;;
9224;SDS011;4647;48.072;11.616;2023-10-08T04:01:56;9.97;;;5.07;;
9224;SDS011;4647;48.072;11.616;2023-10-08T04:04:26;9.83;;;5.20;;
9224;SDS011;4647;48.072;11.616;2023-10-08T04:07:14;15.17;;;5.43;;
9224;SDS011;4647;48.072;11.616;2023-10-08T04:09:54;10.20;;;4.70;;
9224;SDS011;4647;48.072;11.616;2023-10-08T04:12:41;7.53;;;4.57;;
9224;SDS011;4647;48.072;11.616;2023-10-08T04:15:12;8.47;;;4.90;;
9224;SDS011;4647;48.072;11.616;2023-10-08T04:17:41;10.83;;;5.07;;
9224;SDS011;4647;48.072;11.616;2023-10-08T04:20:16;10.57;;;5.20;;
9224;SDS011;4647;48.072;11.616;2023-10-08T04:22:58;9.30;;;5.10;;
9224;SDS011;4647;48.072;11.616;2023-10-08T04:25:27;10.73;;;5.33;;
9224;SDS011;4647;48.072;11.616;2023-10-08T04:27:56;10.67;;;5.57;;
9224;SDS011;4647;48.072;11.616;2023-10-08T04:30:28;9.93;;;4.80;;
9224;SDS011;4647;48.072;11.616;2023-10-08T04:33:05;13.67;;;5.33;;
9224;SDS011;4647;48.072;11.616;2023-10-08T04:35:38;8.73;;;5.07;;
9224;SDS011;4647;48.072;11.616;2023-10-08T04:38:13;12.60;;;5.53;;
9224;SDS011;4647;48.072;11.616;2023-10-08T04:40:43;13.00;;;5.70;;
9224;SDS011;4647;48.072;11.616;2023-10-08T04:43:18;12.33;;;5.47;;
9224;SDS011;4647;48.072;11.616;2023-10-08T04:45:52;13.00;;;5.10;;
9224;SDS011;4647;48.072;11.616;2023-10-08T04:48:22;11.50;;;4.80;;
9224;SDS011;4647;48.072;11.616;2023-10-08T04:50:52;9.87;;;5.30;;
9224;SDS011;4647;48.072;11.616;2023-10-08T04:53:26;15.27;;;5.30;;
9224;SDS011;4647;48.072;11.616;2023-10-08T04:56:02;10.07;;;5.13;;
9224;SDS011;4647;48.072;11.616;2023-10-08T04:58:38;15.80;;;5.13;;
9224;SDS011;4647;48.072;11.616;2023-10-08T05:01:14;11.60;;;4.60;;
9224;SDS011;4647;48.072;11.616;2023-10-08T05:03:46;13.37;;;5.33;;
9224;SDS011;4647;48.072;11.616;2023-10-08T05:06:28;11.47;;;5.40;;
9224;SDS011;4647;48.072;11.616;2023-10-08T05:09:15;13.23;;;5.10;;
9224;SDS011;4647;48.072;11.616;2023-10-08T05:11:49;13.53;;;5.00;;
9224;SDS011;4647;48.072;11.616;2023-10-08T05:14:30;11.20;;;5.23;;
9224;SDS011;4647;48.072;11.616;2023-10-08T05:17:13;11.23;;;5.80;;
9224;SDS011;4647;48.072;11.616;2023-10-08T05:19:47;13.70;;;5.40;;
9224;SDS011;4647;48.072;11.616;2023-10-08T05:22:26;9.53;;;5.00;;
9224;SDS011;4647;48.072;11.616;2023-10-08T05:25:09;13.80;;;5.37;;
9224;SDS011;4647;48.072;11.616;2023-10-08T05:27:58;13.53;;;5.27;;
9224;SDS011;4647;48.072;11.616;2023-10-08T05:30:34;9.20;;;5.07;;
9224;SDS011;4647;48.072;11.616;2023-10-08T05:33:09;12.80;;;5.13;;
9224;SDS011;4647;48.072;11.616;2023-10-08T05:35:49;9.73;;;5.17;;
9224;SDS011;4647;48.072;11.616;2023-10-08T05:38:20;11.67;;;5.03;;
9224;SDS011;4647;48.072;11.616;2023-10-08T05:41:03;15.00;;;5.00;;
9224;SDS011;4647;48.072;11.616;2023-10-08T05:43:42;12.13;;;5.23;;
9224;SDS011;4647;48.072;11.616;2023-10-08T05:46:22;11.37;;;5.00;;
9224;SDS011;4647;48.072;11.616;2023-10-08T05:49:06;19.73;;;5.57;;
9224;SDS011;4647;48.072;11.616;2023-10-08T05:52:03;18.10;;;5.93;;
9224;SDS011;4647;48.072;11.616;2023-10-08T05:54:44;14.40;;;5.63;;
9224;SDS011;4647;48.072;11.616;2023-10-08T05:57:35;16.30;;;5.20;;
9224;SDS011;4647;48.072;11.616;2023-10-08T06:00:04;9.47;;;5.37;;
9224;SDS011;4647;48.072;11.616;2023-10-08T06:02:46;9.57;;;4.47;;
9224;SDS011;4647;48.072;11.616;2023-10-08T06:05:37;11.93;;;4.90;;
9224;SDS011;4647;48.072;11.616;2023-10-08T06:08:12;6.60;;;4.63;;
9224;SDS011;4647;48.072;11.616;2023-10-08T06:10:46;9.73;;;4.90;;
9224;SDS011;4647;48.072;11.616;2023-10-08T06:13:21;12.97;;;5.57;;
9224;SDS011;4647;48.072;11.616;2023-10-08T06:16:10;9.57;;;5.40;;
9224;SDS011;4647;48.072;11.616;2023-10-08T06:18:56;9.27;;;4.80;;
9224;SDS011;4647;48.072;11.616;2023-10-08T06:21:24;7.53;;;4.93;;
9224;SDS011;4647;48.072;11.616;2023-10-08T06:23:52;10.67;;;5.03;;
9224;SDS011;4647;48.072;11.616;2023-10-08T06:26:21;10.23;;;5.50;;
9224;SDS011;4647;48.072;11.616;2023-10-08T06:28:50;9.10;;;4.50;;
9224;SDS011;4647;48.072;11.616;2023-10-08T06:31:23;8.37;;;4.13;;
9224;SDS011;4647;48.072;11.616;2023-10-08T06:33:54;13.07;;;4.83;;
9224;SDS011;4647;48.072;11.616;2023-10-08T06:36:26;10.07;;;5.67;;
9224;SDS011;4647;48.072;11.616;2023-10-08T06:38:56;8.67;;;5.00;;
9224;SDS011;4647;48.072;11.616;2023-10-08T06:41:24;9.40;;;4.97;;
9224;SDS011;4647;48.072;11.616;2023-10-08T06:43:58;9.93;;;5.47;;
9224;SDS011;4647;48.072;11.616;2023-10-08T06:46:30;7.60;;;5.03;;
9224;SDS011;4647;48.072;11.616;2023-10-08T06:49:00;7.47;;;5.07;;
9224;SDS011;4647;48.072;11.616;2023-10-08T06:51:39;8.57;;;5.00;;
9224;SDS011;4647;48.072;11.616;2023-10-08T06:54:09;8.27;;;4.87;;
9224;SDS011;4647;48.072;11.616;2023-10-08T06:56:39;7.03;;;5.10;;
9224;SDS011;4647;48.072;11.616;2023-10-08T06:59:11;9.97;;;5.10;;
9224;SDS011;4647;48.072;11.616;2023-10-08T07:01:42;7.07;;;4.83;;
9224;SDS011;4647;48.072;11.616;2023-10-08T07:04:11;8.13;;;4.80;;
9224;SDS011;4647;48.072;11.616;2023-10-08T07:06:43;8.67;;;4.90;;
9224;SDS011;4647;48.072;11.616;2023-10-08T07:09:12;10.20;;;5.03;;
9224;SDS011;4647;48.072;11.616;2023-10-08T07:11:54;7.03;;;4.87;;
9224;SDS011;4647;48.072;11.616;2023-10-08T07:14:23;10.17;;;4.57;;
9224;SDS011;4647;48.072;11.616;2023-10-08T07:16:54;9.17;;;5.10;;
9224;SDS011;4647;48.072;11.616;2023-10-08T07:19:23;11.40;;;5.07;;
9224;SDS011;4647;48.072;11.616;2023-10-08T07:22:02;8.80;;;5.10;;
9224;SDS011;4647;48.072;11.616;2023-10-08T07:24:43;10.53;;;5.20;;
9224;SDS011;4647;48.072;11.616;2023-10-08T07:27:15;7.80;;;4.63;;
9224;SDS011;4647;48.072;11.616;2023-10-08T07:29:46;11.67;;;5.17;;
9224;SDS011;4647;48.072;11.616;2023-10-08T07:32:15;13.73;;;6.37;;
9224;SDS011;4647;48.072;11.616;2023-10-08T07:34:44;10.10;;;4.93;;
9224;SDS011;4647;48.072;11.616;2023-10-08T07:37:15;9.63;;;5.30;;
9224;SDS011;4647;48.072;11.616;2023-10-08T07:39:44;10.10;;;5.00;;
9224;SDS011;4647;48.072;11.616;2023-10-08T07:42:13;12.20;;;5.70;;
9224;SDS011;4647;48.072;11.616;2023-10-08T07:44:41;8.97;;;5.40;;
9224;SDS011;4647;48.072;11.616;2023-10-08T07:47:10;9.80;;;5.27;;
9224;SDS011;4647;48.072;11.616;2023-10-08T07:49:39;11.27;;;6.03;;
9224;SDS011;4647;48.072;11.616;2023-10-08T07:52:09;11.83;;;5.40;;
9224;SDS011;4647;48.072;11.616;2023-10-08T07:54:43;11.20;;;5.10;;
9224;SDS011;4647;48.072;11.616;2023-10-08T07:57:12;11.70;;;5.40;;
9224;SDS011;4647;48.072;11.616;2023-10-08T07:59:44;15.90;;;5.70;;
9224;SDS011;4647;48.072;11.616;2023-10-08T08:02:14;10.70;;;5.47;;
9224;SDS011;4647;48.072;11.616;2023-10-08T08:04:45;15.00;;;5.10;;
9224;SDS011;4647;48.072;11.616;2023-10-08T08:07:20;14.87;;;5.13;;
9224;SDS011;4647;48.072;11.616;2023-10-08T08:09:52;9.43;;;5.37;;
9224;SDS011;4647;48.072;11.616;2023-10-08T08:12:27;17.67;;;5.77;;
9224;SDS011;4647;48.072;11.616;2023-10-08T08:14:57;10.70;;;5.07;;
9224;SDS011;4647;48.072;11.616;2023-10-08T08:17:28;9.37;;;5.20;;
9224;SDS011;4647;48.072;11.616;2023-10-08T08:19:58;12.80;;;5.73;;
9224;SDS011;4647;48.072;11.616;2023-10-08T08:22:42;17.07;;;5.93;;
9224;SDS011;4647;48.072;11.616;2023-10-08T08:25:17;9.27;;;5.20;;
9224;SDS011;4647;48.072;11.616;2023-10-08T08:27:58;14.73;;;5.57;;
9224;SDS011;4647;48.072;11.616;2023-10-08T08:30:31;12.33;;;5.47;;
9224;SDS011;4647;48.072;11.616;2023-10-08T08:33:01;14.30;;;6.03;;
9224;SDS011;4647;48.072;11.616;2023-10-08T08:35:35;10.40;;;5.90;;
9224;SDS011;4647;48.072;11.616;2023-10-08T08:38:03;15.50;;;5.30;;
9224;SDS011;4647;48.072;11.616;2023-10-08T08:40:36;10.57;;;5.57;;
9224;SDS011;4647;48.072;11.616;2023-10-08T08:43:05;15.27;;;5.83;;
9224;SDS011;4647;48.072;11.616;2023-10-08T08:45:35;12.03;;;5.57;;
9224;SDS011;4647;48.072;11.616;2023-10-08T08:48:08;9.27;;;5.80;;
9224;SDS011;4647;48.072;11.616;2023-10-08T08:50:37;12.53;;;5.83;;
9224;SDS011;4647;48.072;11.616;2023-10-08T08:53:06;14.97;;;5.37;;
9224;SDS011;4647;48.072;11.616;2023-10-08T08:55:39;15.77;;;5.93;;
9224;SDS011;4647;48.072;11.616;2023-10-08T08:58:08;12.50;;;5.80;;
9224;SDS011;4647;48.072;11.616;2023-10-08T09:00:38;12.13;;;5.80;;
9224;SDS011;4647;48.072;11.616;2023-10-08T09:03:07;11.97;;;6.00;;
9224;SDS011;4647;48.072;11.616;2023-10-08T09:05:38;13.43;;;5.80;;
9224;SDS011;4647;48.072;11.616;2023-10-08T09:08:15;14.60;;;5.80;;
9224;SDS011;4647;48.072;11.616;2023-10-08T09:10:46;18.30;;;6.23;;
9224;SDS011;4647;48.072;11.616;2023-10-08T09:13:19;12.73;;;7.13;;
9224;SDS011;4647;48.072;11.616;2023-10-08T09:15:50;17.97;;;6.17;;
9224;SDS011;4647;48.072;11.616;2023-10-08T09:18:20;16.27;;;6.60;;
9224;SDS011;4647;48.072;11.616;2023-10-08T09:20:49;14.50;;;5.63;;
9224;SDS011;4647;48.072;11.616;2023-10-08T09:23:18;14.97;;;5.80;;
9224;SDS011;4647;48.072;11.616;2023-10-08T09:25:49;16.67;;;5.77;;
9224;SDS011;4647;48.072;11.616;2023-10-08T09:28:27;12.67;;;5.70;;
9224;SDS011;4647;48.072;11.616;2023-10-08T09:30:57;17.03;;;6.07;;
9224;SDS011;4647;48.072;11.616;2023-10-08T09:33:26;13.33;;;5.43;;
9224;SDS011;4647;48.072;11.616;2023-10-08T09:35:56;16.87;;;6.50;;
9224;SDS011;4647;48.072;11.616;2023-10-08T09:38:28;19.93;;;6.20;;
9224;SDS011;4647;48.072;11.616;2023-10-08T09:40:59;21.17;;;8.50;;
9224;SDS011;4647;48.072;11.616;2023-10-08T09:43:28;20.77;;;6.77;;
9224;SDS011;4647;48.072;11.616;2023-10-08T09:46:01;11.60;;;5.70;;
9224;SDS011;4647;48.072;11.616;2023-10-08T09:48:36;15.73;;;5.60;;
9224;SDS011;4647;48.072;11.616;2023-10-08T09:51:06;15.93;;;6.23;;
9224;SDS011;4647;48.072;11.616;2023-10-08T09:53:43;13.63;;;5.83;;
9224;SDS011;4647;48.072;11.616;2023-10-08T09:56:22;11.27;;;5.73;;
9224;SDS011;4647;48.072;11.616;2023-10-08T09:58:52;16.20;;;5.57;;
9224;SDS011;4647;48.072;11.616;2023-10-08T10:01:20;18.73;;;5.77;;
9224;SDS011;4647;48.072;11.616;2023-10-08T10:03:51;17.70;;;5.90;;
9224;SDS011;4647;48.072;11.616;2023-10-08T10:06:19;16.20;;;6.20;;
9224;SDS011;4647;48.072;11.616;2023-10-08T10:08:48;19.87;;;5.63;;
9224;SDS011;4647;48.072;11.616;2023-10-08T10:11:19;15.07;;;6.47;;
9224;SDS011;4647;48.072;11.616;2023-10-08T10:13:52;16.67;;;6.40;;
9224;SDS011;4647;48.072;11.616;2023-10-08T10:16:27;14.53;;;5.90;;
9224;SDS011;4647;48.072;11.616;2023-10-08T10:18:56;16.23;;;5.77;;
9224;SDS011;4647;48.072;11.616;2023-10-08T10:21:26;15.80;;;5.77;;
9224;SDS011;4647;48.072;11.616;2023-10-08T10:23:58;14.43;;;6.00;;
9224;SDS011;4647;48.072;11.616;2023-10-08T10:26:28;13.80;;;5.70;;
9224;SDS011;4647;48.072;11.616;2023-10-08T10:31:51;17.20;;;5.73;;
9224;SDS011;4647;48.072;11.616;2023-10-08T10:34:22;19.07;;;6.17;;
9224;SDS011;4647;48.072;11.616;2023-10-08T10:36:52;18.93;;;6.20;;
9224;SDS011;4647;48.072;11.616;2023-10-08T10:39:28;16.67;;;5.47;;
9224;SDS011;4647;48.072;11.616;2023-10-08T10:41:59;18.17;;;5.80;;
9224;SDS011;4647;48.072;11.616;2023-10-08T10:44:34;12.03;;;5.63;;
9224;SDS011;4647;48.072;11.616;2023-10-08T10:47:03;12.23;;;5.83;;
9224;SDS011;4647;48.072;11.616;2023-10-08T10:49:45;16.33;;;6.20;;
9224;SDS011;4647;48.072;11.616;2023-10-08T10:52:35;16.03;;;6.37;;
9224;SDS011;4647;48.072;11.616;2023-10-08T10:55:11;14.03;;;5.57;;
9224;SDS011;4647;48.072;11.616;2023-10-08T10:57:48;14.40;;;5.77;;
9224;SDS011;4647;48.072;11.616;2023-10-08T11:00:31;16.97;;;6.10;;
9224;SDS011;4647;48.072;11.616;2023-10-08T11:03:12;13.13;;;5.73;;
9224;SDS011;4647;48.072;11.616;2023-10-08T11:05:49;13.97;;;6.43;;
9224;SDS011;4647;48.072;11.616;2023-10-08T11:08:20;17.73;;;6.00;;
9224;SDS011;4647;48.072;11.616;2023-10-08T11:10:51;14.40;;;6.30;;
9224;SDS011;4647;48.072;11.616;2023-10-08T11:13:24;13.70;;;5.97;;
9224;SDS011;4647;48.072;11.616;2023-10-08T11:16:05;15.17;;;6.07;;
9224;SDS011;4647;48.072;11.616;2023-10-08T11:18:42;17.13;;;5.77;;
9224;SDS011;4647;48.072;11.616;2023-10-08T11:21:14;14.53;;;5.90;;
9224;SDS011;4647;48.072;11.616;2023-10-08T11:23:48;12.70;;;5.80;;
9224;SDS011;4647;48.072;11.616;2023-10-08T11:26:21;13.10;;;5.87;;
9224;SDS011;4647;48.072;11.616;2023-10-08T11:28:57;22.23;;;5.70;;
9224;SDS011;4647;48.072;11.616;2023-10-08T11:31:29;15.10;;;5.73;;
9224;SDS011;4647;48.072;11.616;2023-10-08T11:33:59;14.27;;;5.53;;
9224;SDS011;4647;48.072;11.616;2023-10-08T11:36:33;19.33;;;6.47;;
9224;SDS011;4647;48.072;11.616;2023-10-08T11:39:14;16.00;;;5.50;;
9224;SDS011;4647;48.072;11.616;2023-10-08T11:41:54;21.77;;;6.53;;
9224;SDS011;4647;48.072;11.616;2023-10-08T11:44:28;15.20;;;6.17;;
9224;SDS011;4647;48.072;11.616;2023-10-08T11:47:03;15.40;;;5.80;;
9224;SDS011;4647;48.072;11.616;2023-10-08T11:49:46;16.23;;;5.97;;
9224;SDS011;4647;48.072;11.616;2023-10-08T11:52:16;18.13;;;6.40;;
9224;SDS011;4647;48.072;11.616;2023-10-08T11:54:46;18.50;;;5.97;;
9224;SDS011;4647;48.072;11.616;2023-10-08T11:57:17;13.80;;;6.03;;
9224;SDS011;4647;48.072;11.616;2023-10-08T11:59:46;16.80;;;6.43;;
9224;SDS011;4647;48.072;11.616;2023-10-08T12:02:20;12.40;;;5.80;;
9224;SDS011;4647;48.072;11.616;2023-10-08T12:04:49;18.40;;;6.17;;
9224;SDS011;4647;48.072;11.616;2023-10-08T12:07:17;16.90;;;5.83;;
9224;SDS011;4647;48.072;11.616;2023-10-08T12:09:48;19.10;;;6.30;;
9224;SDS011;4647;48.072;11.616;2023-10-08T12:12:19;18.80;;;5.87;;
9224;SDS011;4647;48.072;11.616;2023-10-08T12:14:48;15.07;;;6.30;;
9224;SDS011;4647;48.072;11.616;2023-10-08T12:17:22;16.93;;;5.90;;
9224;SDS011;4647;48.072;11.616;2023-10-08T12:20:03;16.97;;;5.93;;
9224;SDS011;4647;48.072;11.616;2023-10-08T12:22:48;16.60;;;5.67;;
9224;SDS011;4647;48.072;11.616;2023-10-08T12:25:17;19.73;;;5.97;;
9224;SDS011;4647;48.072;11.616;2023-10-08T12:27:45;18.57;;;6.10;;
9224;SDS011;4647;48.072;11.616;2023-10-08T12:30:12;16.37;;;5.80;;
9224;SDS011;4647;48.072;11.616;2023-10-08T12:32:43;18.37;;;6.33;;
9224;SDS011;4647;48.072;11.616;2023-10-08T12:35:12;13.90;;;6.07;;
9224;SDS011;4647;48.072;11.616;2023-10-08T12:37:42;17.63;;;5.67;;
9224;SDS011;4647;48.072;11.616;2023-10-08T12:40:10;24.10;;;6.50;;
9224;SDS011;4647;48.072;11.616;2023-10-08T12:42:47;15.80;;;5.60;;
9224;SDS011;4647;48.072;11.616;2023-10-08T12:45:16;16.10;;;5.43;;
9224;SDS011;4647;48.072;11.616;2023-10-08T12:47:49;19.87;;;6.23;;
9224;SDS011;4647;48.072;11.616;2023-10-08T12:50:18;12.93;;;5.23;;
9224;SDS011;4647;48.072;11.616;2023-10-08T12:52:54;19.73;;;6.00;;
9224;SDS011;4647;48.072;11.616;2023-10-08T12:55:22;18.87;;;5.93;;
9224;SDS011;4647;48.072;11.616;2023-10-08T12:57:52;17.60;;;5.93;;
9224;SDS011;4647;48.072;11.616;2023-10-08T13:00:29;18.77;;;6.40;;
9224;SDS011;4647;48.072;11.616;2023-10-08T13:03:00;20.07;;;6.33;;
9224;SDS011;4647;48.072;11.616;2023-10-08T13:05:30;16.03;;;5.50;;
9224;SDS011;4647;48.072;11.616;2023-10-08T13:07:59;19.33;;;5.97;;
9224;SDS011;4647;48.072;11.616;2023-10-08T13:10:34;15.27;;;6.00;;
9224;SDS011;4647;48.072;11.616;2023-10-08T13:13:06;18.73;;;6.53;;
9224;SDS011;4647;48.072;11.616;2023-10-08T13:15:35;19.80;;;6.10;;
9224;SDS011;4647;48.072;11.616;2023-10-08T13:18:07;19.43;;;5.53;;
9224;SDS011;4647;48.072;11.616;2023-10-08T13:20:35;18.67;;;5.87;;
9224;SDS011;4647;48.072;11.616;2023-10-08T13:23:06;19.20;;;6.03;;
9224;SDS011;4647;48.072;11.616;2023-10-08T13:25:35;17.33;;;5.90;;
9224;SDS011;4647;48.072;11.616;2023-10-08T13:28:05;18.60;;;6.67;;
9224;SDS011;4647;48.072;11.616;2023-10-08T13:30:36;19.93;;;6.43;;
9224;SDS011;4647;48.072;11.616;2023-10-08T13:33:07;18.73;;;6.03;;
9224;SDS011;4647;48.072;11.616;2023-10-08T13:35:36;17.07;;;5.87;;
9224;SDS011;4647;48.072;11.616;2023-10-08T13:38:04;20.77;;;5.60;;
9224;SDS011;4647;48.072;11.616;2023-10-08T13:40:38;18.10;;;5.83;;
9224;SDS011;4647;48.072;11.616;2023-10-08T13:43:27;18.50;;;5.77;;
9224;SDS011;4647;48.072;11.616;2023-10-08T13:45:59;15.93;;;5.83;;
9224;SDS011;4647;48.072;11.616;2023-10-08T13:48:36;25.33;;;6.40;;
9224;SDS011;4647;48.072;11.616;2023-10-08T13:51:05;20.27;;;5.80;;
9224;SDS011;4647;48.072;11.616;2023-10-08T13:53:38;15.70;;;6.00;;
9224;SDS011;4647;48.072;11.616;2023-10-08T13:56:10;18.97;;;6.10;;
9224;SDS011;4647;48.072;11.616;2023-10-08T13:58:40;15.83;;;6.10;;
9224;SDS011;4647;48.072;11.616;2023-10-08T14:01:11;19.60;;;6.00;;
9224;SDS011;4647;48.072;11.616;2023-10-08T14:03:49;19.80;;;6.43;;
9224;SDS011;4647;48.072;11.616;2023-10-08T14:06:21;17.27;;;6.47;;
9224;SDS011;4647;48.072;11.616;2023-10-08T14:08:50;21.10;;;6.70;;
9224;SDS011;4647;48.072;11.616;2023-10-08T14:11:21;17.37;;;6.37;;
9224;SDS011;4647;48.072;11.616;2023-10-08T14:13:55;23.87;;;6.50;;
9224;SDS011;4647;48.072;11.616;2023-10-08T14:16:27;16.30;;;6.30;;
9224;SDS011;4647;48.072;11.616;2023-10-08T14:19:00;19.13;;;6.40;;
9224;SDS011;4647;48.072;11.616;2023-10-08T14:21:30;23.40;;;6.27;;
9224;SDS011;4647;48.072;11.616;2023-10-08T14:24:05;18.73;;;6.60;;
9224;SDS011;4647;48.072;11.616;2023-10-08T14:26:40;17.13;;;6.17;;
9224;SDS011;4647;48.072;11.616;2023-10-08T14:29:09;16.07;;;5.93;;
9224;SDS011;4647;48.072;11.616;2023-10-08T14:31:40;17.30;;;6.60;;
9224;SDS011;4647;48.072;11.616;2023-10-08T14:34:16;17.63;;;5.87;;
9224;SDS011;4647;48.072;11.616;2023-10-08T14:37:07;19.60;;;6.60;;
9224;SDS011;4647;48.072;11.616;2023-10-08T14:39:49;21.77;;;6.40;;
9224;SDS011;4647;48.072;11.616;2023-10-08T14:42:29;18.47;;;6.73;;
9224;SDS011;4647;48.072;11.616;2023-10-08T14:45:10;18.27;;;6.03;;
9224;SDS011;4647;48.072;11.616;2023-10-08T14:47:39;15.03;;;6.37;;
9224;SDS011;4647;48.072;11.616;2023-10-08T14:50:10;18.93;;;6.50;;
9224;SDS011;4647;48.072;11.616;2023-10-08T14:52:41;22.27;;;6.80;;
9224;SDS011;4647;48.072;11.616;2023-10-08T14:55:10;15.70;;;6.47;;
9224;SDS011;4647;48.072;11.616;2023-10-08T14:57:39;18.00;;;6.83;;
9224;SDS011;4647;48.072;11.616;2023-10-08T15:00:08;18.17;;;6.30;;
9224;SDS011;4647;48.072;11.616;2023-10-08T15:02:37;14.93;;;5.93;;
9224;SDS011;4647;48.072;11.616;2023-10-08T15:05:06;18.10;;;5.83;;
9224;SDS011;4647;48.072;11.616;2023-10-08T15:07:39;20.47;;;5.53;;
9224;SDS011;4647;48.072;11.616;2023-10-08T15:10:07;13.70;;;5.57;;
9224;SDS011;4647;48.072;11.616;2023-10-08T15:12:38;22.57;;;6.53;;
9224;SDS011;4647;48.072;11.616;2023-10-08T15:15:07;23.90;;;6.67;;
9224;SDS011;4647;48.072;11.616;2023-10-08T15:17:40;20.17;;;6.67;;
9224;SDS011;4647;48.072;11.616;2023-10-08T15:20:12;21.27;;;6.80;;
9224;SDS011;4647;48.072;11.616;2023-10-08T15:22:43;18.03;;;6.63;;
9224;SDS011;4647;48.072;11.616;2023-10-08T15:25:12;13.23;;;6.13;;
9224;SDS011;4647;48.072;11.616;2023-10-08T15:27:42;19.63;;;6.27;;
9224;SDS011;4647;48.072;11.616;2023-10-08T15:30:13;20.70;;;6.37;;